sensor_id;sensor_type;location;lat;lon;timestamp;temperature;humidity
45785;DHT22;31489;51.404;5.474;2024-01-11T00:00:57;2.00;54.90
45785;DHT22;31489;51.404;5.474;2024-01-11T00:03:24;2.00;55.00
45785;DHT22;31489;51.404;5.474;2024-01-11T00:05:50;2.00;55.10
45785;DHT22;31489;51.404;5.474;2024-01-11T00:08:16;2.00;55.10
45785;DHT22;31489;51.404;5.474;2024-01-11T00:10:41;2.00;55.10
45785;DHT22;31489;51.404;5.474;2024-01-11T00:13:07;2.00;55.10
45785;DHT22;31489;51.404;5.474;2024-01-11T00:15:33;2.00;55.10
45785;DHT22;31489;51.404;5.474;2024-01-11T00:17:58;1.90;55.10
45785;DHT22;31489;51.404;5.474;2024-01-11T00:20:24;2.00;55.30
45785;DHT22;31489;51.404;5.474;2024-01-11T00:22:50;2.00;55.20
45785;DHT22;31489;51.404;5.474;2024-01-11T00:25:15;1.90;55.20
45785;DHT22;31489;51.404;5.474;2024-01-11T00:27:41;1.90;55.20
45785;DHT22;31489;51.404;5.474;2024-01-11T00:30:07;1.90;55.10
45785;DHT22;31489;51.404;5.474;2024-01-11T00:32:33;1.90;55.20
45785;DHT22;31489;51.404;5.474;2024-01-11T00:34:58;1.90;55.30
45785;DHT22;31489;51.404;5.474;2024-01-11T00:37:24;1.90;55.40
45785;DHT22;31489;51.404;5.474;2024-01-11T00:39:50;1.80;55.30
45785;DHT22;31489;51.404;5.474;2024-01-11T00:42:16;1.80;55.40
45785;DHT22;31489;51.404;5.474;2024-01-11T00:44:41;1.80;56.00
45785;DHT22;31489;51.404;5.474;2024-01-11T00:47:07;1.80;55.50
45785;DHT22;31489;51.404;5.474;2024-01-11T00:49:32;1.80;55.50
45785;DHT22;31489;51.404;5.474;2024-01-11T00:51:58;1.80;55.60
45785;DHT22;31489;51.404;5.474;2024-01-11T00:54:23;1.70;55.60
45785;DHT22;31489;51.404;5.474;2024-01-11T00:56:50;1.70;55.70
45785;DHT22;31489;51.404;5.474;2024-01-11T00:59:15;1.70;55.70
45785;DHT22;31489;51.404;5.474;2024-01-11T01:01:47;1.70;55.70
45785;DHT22;31489;51.404;5.474;2024-01-11T01:04:13;1.70;56.40
45785;DHT22;31489;51.404;5.474;2024-01-11T01:06:38;1.70;55.90
45785;DHT22;31489;51.404;5.474;2024-01-11T01:09:04;1.60;55.90
45785;DHT22;31489;51.404;5.474;2024-01-11T01:11:29;1.60;56.00
45785;DHT22;31489;51.404;5.474;2024-01-11T01:13:55;1.60;56.00
45785;DHT22;31489;51.404;5.474;2024-01-11T01:16:21;1.60;56.10
45785;DHT22;31489;51.404;5.474;2024-01-11T01:18:46;1.60;56.70
45785;DHT22;31489;51.404;5.474;2024-01-11T01:21:12;1.60;56.30
45785;DHT22;31489;51.404;5.474;2024-01-11T01:23:37;1.50;56.90
45785;DHT22;31489;51.404;5.474;2024-01-11T01:26:03;1.50;56.20
45785;DHT22;31489;51.404;5.474;2024-01-11T01:28:29;1.50;56.30
45785;DHT22;31489;51.404;5.474;2024-01-11T01:30:54;1.50;56.30
45785;DHT22;31489;51.404;5.474;2024-01-11T01:33:20;1.50;56.40
45785;DHT22;31489;51.404;5.474;2024-01-11T01:35:45;1.50;56.50
45785;DHT22;31489;51.404;5.474;2024-01-11T01:38:12;1.50;56.60
45785;DHT22;31489;51.404;5.474;2024-01-11T01:40:37;1.50;56.70
45785;DHT22;31489;51.404;5.474;2024-01-11T01:43:06;1.50;56.70
45785;DHT22;31489;51.404;5.474;2024-01-11T01:45:34;1.40;56.70
45785;DHT22;31489;51.404;5.474;2024-01-11T01:47:59;1.40;56.70
45785;DHT22;31489;51.404;5.474;2024-01-11T01:50:26;1.40;57.30
45785;DHT22;31489;51.404;5.474;2024-01-11T01:52:51;1.40;56.80
45785;DHT22;31489;51.404;5.474;2024-01-11T01:55:18;1.40;56.90
45785;DHT22;31489;51.404;5.474;2024-01-11T01:57:46;1.40;57.20
45785;DHT22;31489;51.404;5.474;2024-01-11T02:00:12;1.40;57.00
45785;DHT22;31489;51.404;5.474;2024-01-11T02:02:40;1.40;56.90
45785;DHT22;31489;51.404;5.474;2024-01-11T02:05:08;1.40;57.00
45785;DHT22;31489;51.404;5.474;2024-01-11T02:07:35;1.40;57.00
45785;DHT22;31489;51.404;5.474;2024-01-11T02:10:02;1.40;57.10
45785;DHT22;31489;51.404;5.474;2024-01-11T02:12:29;1.40;57.20
45785;DHT22;31489;51.404;5.474;2024-01-11T02:14:54;1.40;57.20
45785;DHT22;31489;51.404;5.474;2024-01-11T02:17:20;1.30;57.10
45785;DHT22;31489;51.404;5.474;2024-01-11T02:19:46;1.30;57.10
45785;DHT22;31489;51.404;5.474;2024-01-11T02:22:21;1.30;57.20
45785;DHT22;31489;51.404;5.474;2024-01-11T02:24:47;1.30;57.30
45785;DHT22;31489;51.404;5.474;2024-01-11T02:27:13;1.30;57.30
45785;DHT22;31489;51.404;5.474;2024-01-11T02:29:38;1.30;57.30
45785;DHT22;31489;51.404;5.474;2024-01-11T02:32:04;1.30;57.40
45785;DHT22;31489;51.404;5.474;2024-01-11T02:34:32;1.20;57.30
45785;DHT22;31489;51.404;5.474;2024-01-11T02:36:58;1.30;57.40
45785;DHT22;31489;51.404;5.474;2024-01-11T02:39:25;1.20;57.40
45785;DHT22;31489;51.404;5.474;2024-01-11T02:41:52;1.20;57.50
45785;DHT22;31489;51.404;5.474;2024-01-11T02:44:17;1.20;57.50
45785;DHT22;31489;51.404;5.474;2024-01-11T02:46:43;1.20;57.60
45785;DHT22;31489;51.404;5.474;2024-01-11T02:49:09;1.20;57.50
45785;DHT22;31489;51.404;5.474;2024-01-11T02:51:34;1.20;57.50
45785;DHT22;31489;51.404;5.474;2024-01-11T02:54:01;1.20;57.60
45785;DHT22;31489;51.404;5.474;2024-01-11T02:56:26;1.10;57.60
45785;DHT22;31489;51.404;5.474;2024-01-11T02:58:52;1.10;57.70
45785;DHT22;31489;51.404;5.474;2024-01-11T03:01:18;1.10;58.30
45785;DHT22;31489;51.404;5.474;2024-01-11T03:03:44;1.10;57.80
45785;DHT22;31489;51.404;5.474;2024-01-11T03:06:10;1.10;57.90
45785;DHT22;31489;51.404;5.474;2024-01-11T03:08:35;1.10;57.90
45785;DHT22;31489;51.404;5.474;2024-01-11T03:11:01;1.00;57.90
45785;DHT22;31489;51.404;5.474;2024-01-11T03:13:30;1.00;57.90
45785;DHT22;31489;51.404;5.474;2024-01-11T03:15:56;1.00;57.90
45785;DHT22;31489;51.404;5.474;2024-01-11T03:18:22;1.00;58.00
45785;DHT22;31489;51.404;5.474;2024-01-11T03:20:48;1.00;58.00
45785;DHT22;31489;51.404;5.474;2024-01-11T03:23:13;1.00;58.10
45785;DHT22;31489;51.404;5.474;2024-01-11T03:25:39;0.90;58.10
45785;DHT22;31489;51.404;5.474;2024-01-11T03:28:05;1.00;58.10
45785;DHT22;31489;51.404;5.474;2024-01-11T03:30:30;0.90;58.10
45785;DHT22;31489;51.404;5.474;2024-01-11T03:32:56;0.90;58.20
45785;DHT22;31489;51.404;5.474;2024-01-11T03:35:21;0.90;58.20
45785;DHT22;31489;51.404;5.474;2024-01-11T03:37:47;0.90;58.20
45785;DHT22;31489;51.404;5.474;2024-01-11T03:40:13;0.90;58.20
45785;DHT22;31489;51.404;5.474;2024-01-11T03:42:39;0.90;58.70
45785;DHT22;31489;51.404;5.474;2024-01-11T03:45:05;0.90;58.30
45785;DHT22;31489;51.404;5.474;2024-01-11T03:47:31;0.90;58.30
45785;DHT22;31489;51.404;5.474;2024-01-11T03:49:57;0.90;58.30
45785;DHT22;31489;51.404;5.474;2024-01-11T03:52:22;0.80;58.20
45785;DHT22;31489;51.404;5.474;2024-01-11T03:54:48;0.90;58.30
45785;DHT22;31489;51.404;5.474;2024-01-11T03:57:14;0.80;58.30
45785;DHT22;31489;51.404;5.474;2024-01-11T03:59:40;0.80;58.30
45785;DHT22;31489;51.404;5.474;2024-01-11T04:02:06;0.80;58.30
45785;DHT22;31489;51.404;5.474;2024-01-11T04:04:32;0.80;58.40
45785;DHT22;31489;51.404;5.474;2024-01-11T04:06:58;0.80;58.50
45785;DHT22;31489;51.404;5.474;2024-01-11T04:09:23;0.80;58.50
45785;DHT22;31489;51.404;5.474;2024-01-11T04:11:49;0.80;58.40
45785;DHT22;31489;51.404;5.474;2024-01-11T04:14:15;0.80;58.50
45785;DHT22;31489;51.404;5.474;2024-01-11T04:16:41;0.80;58.50
45785;DHT22;31489;51.404;5.474;2024-01-11T04:19:07;0.80;58.50
45785;DHT22;31489;51.404;5.474;2024-01-11T04:21:32;0.80;58.60
45785;DHT22;31489;51.404;5.474;2024-01-11T04:23:58;0.70;58.60
45785;DHT22;31489;51.404;5.474;2024-01-11T04:26:24;0.70;58.60
45785;DHT22;31489;51.404;5.474;2024-01-11T04:28:53;0.70;58.70
45785;DHT22;31489;51.404;5.474;2024-01-11T04:31:19;0.70;58.80
45785;DHT22;31489;51.404;5.474;2024-01-11T04:33:45;0.70;58.80
45785;DHT22;31489;51.404;5.474;2024-01-11T04:36:11;0.70;58.80
45785;DHT22;31489;51.404;5.474;2024-01-11T04:38:37;0.70;58.80
45785;DHT22;31489;51.404;5.474;2024-01-11T04:41:13;0.70;58.80
45785;DHT22;31489;51.404;5.474;2024-01-11T04:43:40;0.60;58.70
45785;DHT22;31489;51.404;5.474;2024-01-11T04:46:31;0.70;58.90
45785;DHT22;31489;51.404;5.474;2024-01-11T04:48:56;0.60;59.00
45785;DHT22;31489;51.404;5.474;2024-01-11T04:51:22;0.60;59.00
45785;DHT22;31489;51.404;5.474;2024-01-11T04:53:47;0.60;59.00
45785;DHT22;31489;51.404;5.474;2024-01-11T04:56:14;0.70;59.00
45785;DHT22;31489;51.404;5.474;2024-01-11T04:58:42;0.70;59.00
45785;DHT22;31489;51.404;5.474;2024-01-11T05:01:12;0.70;58.90
45785;DHT22;31489;51.404;5.474;2024-01-11T05:03:38;0.70;59.00
45785;DHT22;31489;51.404;5.474;2024-01-11T05:06:04;0.70;58.90
45785;DHT22;31489;51.404;5.474;2024-01-11T05:08:29;0.70;59.00
45785;DHT22;31489;51.404;5.474;2024-01-11T05:10:55;0.60;58.90
45785;DHT22;31489;51.404;5.474;2024-01-11T05:13:21;0.70;58.90
45785;DHT22;31489;51.404;5.474;2024-01-11T05:15:46;0.60;58.80
45785;DHT22;31489;51.404;5.474;2024-01-11T05:18:13;0.60;58.80
45785;DHT22;31489;51.404;5.474;2024-01-11T05:20:38;0.60;58.80
45785;DHT22;31489;51.404;5.474;2024-01-11T05:23:04;0.60;58.80
45785;DHT22;31489;51.404;5.474;2024-01-11T05:25:30;0.60;58.80
45785;DHT22;31489;51.404;5.474;2024-01-11T05:28:03;0.60;59.40
45785;DHT22;31489;51.404;5.474;2024-01-11T05:30:29;0.60;58.80
45785;DHT22;31489;51.404;5.474;2024-01-11T05:32:55;0.60;58.70
45785;DHT22;31489;51.404;5.474;2024-01-11T05:35:21;0.50;58.80
45785;DHT22;31489;51.404;5.474;2024-01-11T05:37:49;0.50;58.90
45785;DHT22;31489;51.404;5.474;2024-01-11T05:40:15;0.50;59.00
45785;DHT22;31489;51.404;5.474;2024-01-11T05:42:40;0.50;59.00
45785;DHT22;31489;51.404;5.474;2024-01-11T05:45:06;0.50;59.10
45785;DHT22;31489;51.404;5.474;2024-01-11T05:47:32;0.50;59.10
45785;DHT22;31489;51.404;5.474;2024-01-11T05:49:58;0.50;59.20
45785;DHT22;31489;51.404;5.474;2024-01-11T05:52:23;0.50;59.30
45785;DHT22;31489;51.404;5.474;2024-01-11T05:54:49;0.40;59.20
45785;DHT22;31489;51.404;5.474;2024-01-11T05:57:14;0.50;59.30
45785;DHT22;31489;51.404;5.474;2024-01-11T05:59:44;0.40;59.70
45785;DHT22;31489;51.404;5.474;2024-01-11T06:02:11;0.40;59.20
45785;DHT22;31489;51.404;5.474;2024-01-11T06:04:36;0.40;59.10
45785;DHT22;31489;51.404;5.474;2024-01-11T06:07:02;0.40;59.10
45785;DHT22;31489;51.404;5.474;2024-01-11T06:09:27;0.40;59.20
45785;DHT22;31489;51.404;5.474;2024-01-11T06:11:53;0.30;59.20
45785;DHT22;31489;51.404;5.474;2024-01-11T06:14:19;0.30;59.30
45785;DHT22;31489;51.404;5.474;2024-01-11T06:16:44;0.30;59.40
45785;DHT22;31489;51.404;5.474;2024-01-11T06:19:10;0.30;59.40
45785;DHT22;31489;51.404;5.474;2024-01-11T06:21:36;0.30;59.50
45785;DHT22;31489;51.404;5.474;2024-01-11T06:24:02;0.30;59.50
45785;DHT22;31489;51.404;5.474;2024-01-11T06:26:29;0.30;59.60
45785;DHT22;31489;51.404;5.474;2024-01-11T06:28:54;0.30;59.60
45785;DHT22;31489;51.404;5.474;2024-01-11T06:31:20;0.30;59.60
45785;DHT22;31489;51.404;5.474;2024-01-11T06:33:46;0.30;59.60
45785;DHT22;31489;51.404;5.474;2024-01-11T06:36:11;0.30;59.60
45785;DHT22;31489;51.404;5.474;2024-01-11T06:38:37;0.20;60.20
45785;DHT22;31489;51.404;5.474;2024-01-11T06:41:03;0.20;59.70
45785;DHT22;31489;51.404;5.474;2024-01-11T06:43:28;0.20;59.80
45785;DHT22;31489;51.404;5.474;2024-01-11T06:45:54;0.20;59.80
45785;DHT22;31489;51.404;5.474;2024-01-11T06:48:20;0.20;59.80
45785;DHT22;31489;51.404;5.474;2024-01-11T06:50:45;0.20;59.80
45785;DHT22;31489;51.404;5.474;2024-01-11T06:53:11;0.10;59.80
45785;DHT22;31489;51.404;5.474;2024-01-11T06:55:36;0.10;59.80
45785;DHT22;31489;51.404;5.474;2024-01-11T06:58:02;0.10;59.90
45785;DHT22;31489;51.404;5.474;2024-01-11T07:00:28;0.10;59.90
45785;DHT22;31489;51.404;5.474;2024-01-11T07:02:54;0.10;60.00
45785;DHT22;31489;51.404;5.474;2024-01-11T07:05:20;0.10;60.10
45785;DHT22;31489;51.404;5.474;2024-01-11T07:07:46;0.10;60.10
45785;DHT22;31489;51.404;5.474;2024-01-11T07:10:12;0.10;60.20
45785;DHT22;31489;51.404;5.474;2024-01-11T07:12:38;0.10;60.20
45785;DHT22;31489;51.404;5.474;2024-01-11T07:15:06;0.10;60.20
45785;DHT22;31489;51.404;5.474;2024-01-11T07:17:33;0.00;60.20
45785;DHT22;31489;51.404;5.474;2024-01-11T07:19:59;0.00;60.20
45785;DHT22;31489;51.404;5.474;2024-01-11T07:22:24;0.10;60.30
45785;DHT22;31489;51.404;5.474;2024-01-11T07:24:50;0.00;60.30
45785;DHT22;31489;51.404;5.474;2024-01-11T07:27:16;0.00;60.40
45785;DHT22;31489;51.404;5.474;2024-01-11T07:29:41;0.00;60.40
45785;DHT22;31489;51.404;5.474;2024-01-11T07:32:07;0.00;61.20
45785;DHT22;31489;51.404;5.474;2024-01-11T07:34:32;0.00;60.60
45785;DHT22;31489;51.404;5.474;2024-01-11T07:36:58;0.00;60.60
45785;DHT22;31489;51.404;5.474;2024-01-11T07:39:24;0.00;60.60
45785;DHT22;31489;51.404;5.474;2024-01-11T07:41:50;0.00;60.60
45785;DHT22;31489;51.404;5.474;2024-01-11T07:44:15;0.00;60.60
45785;DHT22;31489;51.404;5.474;2024-01-11T07:46:42;0.00;60.80
45785;DHT22;31489;51.404;5.474;2024-01-11T07:49:07;0.00;60.80
45785;DHT22;31489;51.404;5.474;2024-01-11T07:51:33;0.00;60.90
45785;DHT22;31489;51.404;5.474;2024-01-11T07:54:02;0.00;61.50
45785;DHT22;31489;51.404;5.474;2024-01-11T07:56:30;0.00;61.00
45785;DHT22;31489;51.404;5.474;2024-01-11T07:58:56;0.00;61.00
45785;DHT22;31489;51.404;5.474;2024-01-11T08:01:21;0.10;61.10
45785;DHT22;31489;51.404;5.474;2024-01-11T08:03:47;0.10;61.10
45785;DHT22;31489;51.404;5.474;2024-01-11T08:06:13;0.10;61.20
45785;DHT22;31489;51.404;5.474;2024-01-11T08:08:39;0.10;61.30
45785;DHT22;31489;51.404;5.474;2024-01-11T08:11:08;0.10;61.30
45785;DHT22;31489;51.404;5.474;2024-01-11T08:13:33;0.10;61.30
45785;DHT22;31489;51.404;5.474;2024-01-11T08:16:01;0.10;61.30
45785;DHT22;31489;51.404;5.474;2024-01-11T08:18:30;0.20;61.40
45785;DHT22;31489;51.404;5.474;2024-01-11T08:20:55;0.20;61.50
45785;DHT22;31489;51.404;5.474;2024-01-11T08:23:21;0.20;61.50
45785;DHT22;31489;51.404;5.474;2024-01-11T08:25:47;0.20;61.50
45785;DHT22;31489;51.404;5.474;2024-01-11T08:28:12;0.20;61.60
45785;DHT22;31489;51.404;5.474;2024-01-11T08:30:38;0.30;61.60
45785;DHT22;31489;51.404;5.474;2024-01-11T08:33:04;0.30;61.70
45785;DHT22;31489;51.404;5.474;2024-01-11T08:35:29;0.30;61.80
45785;DHT22;31489;51.404;5.474;2024-01-11T08:37:57;0.30;61.80
45785;DHT22;31489;51.404;5.474;2024-01-11T08:40:23;0.30;61.80
45785;DHT22;31489;51.404;5.474;2024-01-11T08:42:49;0.40;61.90
45785;DHT22;31489;51.404;5.474;2024-01-11T08:45:14;0.40;61.80
45785;DHT22;31489;51.404;5.474;2024-01-11T08:47:45;0.40;61.90
45785;DHT22;31489;51.404;5.474;2024-01-11T08:50:15;0.40;62.00
45785;DHT22;31489;51.404;5.474;2024-01-11T08:52:41;0.50;62.10
45785;DHT22;31489;51.404;5.474;2024-01-11T08:55:08;0.50;62.20
45785;DHT22;31489;51.404;5.474;2024-01-11T08:57:33;0.50;62.20
45785;DHT22;31489;51.404;5.474;2024-01-11T09:00:02;0.60;62.20
45785;DHT22;31489;51.404;5.474;2024-01-11T09:02:27;0.60;62.20
45785;DHT22;31489;51.404;5.474;2024-01-11T09:04:53;0.70;62.20
45785;DHT22;31489;51.404;5.474;2024-01-11T09:07:19;0.70;62.20
45785;DHT22;31489;51.404;5.474;2024-01-11T09:09:45;0.80;62.30
45785;DHT22;31489;51.404;5.474;2024-01-11T09:12:11;0.80;62.30
45785;DHT22;31489;51.404;5.474;2024-01-11T09:14:37;0.90;62.50
45785;DHT22;31489;51.404;5.474;2024-01-11T09:17:02;0.90;62.50
45785;DHT22;31489;51.404;5.474;2024-01-11T09:19:34;1.00;62.60
45785;DHT22;31489;51.404;5.474;2024-01-11T09:22:00;1.00;62.60
45785;DHT22;31489;51.404;5.474;2024-01-11T09:24:26;1.10;62.60
45785;DHT22;31489;51.404;5.474;2024-01-11T09:26:51;1.10;62.50
45785;DHT22;31489;51.404;5.474;2024-01-11T09:29:17;1.20;62.60
45785;DHT22;31489;51.404;5.474;2024-01-11T09:31:43;1.20;62.50
45785;DHT22;31489;51.404;5.474;2024-01-11T09:34:08;1.30;62.50
45785;DHT22;31489;51.404;5.474;2024-01-11T09:36:34;1.30;62.50
45785;DHT22;31489;51.404;5.474;2024-01-11T09:39:00;1.40;62.40
45785;DHT22;31489;51.404;5.474;2024-01-11T09:41:26;1.40;62.30
45785;DHT22;31489;51.404;5.474;2024-01-11T09:43:54;1.50;62.30
45785;DHT22;31489;51.404;5.474;2024-01-11T09:46:20;1.50;62.20
45785;DHT22;31489;51.404;5.474;2024-01-11T09:48:48;1.60;62.30
45785;DHT22;31489;51.404;5.474;2024-01-11T09:51:15;1.60;62.30
45785;DHT22;31489;51.404;5.474;2024-01-11T09:53:42;1.60;62.20
45785;DHT22;31489;51.404;5.474;2024-01-11T09:56:09;1.70;62.60
45785;DHT22;31489;51.404;5.474;2024-01-11T09:58:36;1.90;63.30
45785;DHT22;31489;51.404;5.474;2024-01-11T10:01:09;2.20;64.00
45785;DHT22;31489;51.404;5.474;2024-01-11T10:03:39;2.60;64.80
45785;DHT22;31489;51.404;5.474;2024-01-11T10:06:06;3.10;65.60
45785;DHT22;31489;51.404;5.474;2024-01-11T10:08:32;3.70;66.30
45785;DHT22;31489;51.404;5.474;2024-01-11T10:10:58;4.40;67.10
45785;DHT22;31489;51.404;5.474;2024-01-11T10:13:28;5.20;66.60
45785;DHT22;31489;51.404;5.474;2024-01-11T10:16:05;5.90;65.70
45785;DHT22;31489;51.404;5.474;2024-01-11T10:18:32;6.70;64.20
45785;DHT22;31489;51.404;5.474;2024-01-11T10:20:57;7.30;64.70
45785;DHT22;31489;51.404;5.474;2024-01-11T10:23:23;8.00;63.80
45785;DHT22;31489;51.404;5.474;2024-01-11T10:25:49;8.70;63.20
45785;DHT22;31489;51.404;5.474;2024-01-11T10:28:14;9.20;62.10
45785;DHT22;31489;51.404;5.474;2024-01-11T10:30:41;9.80;61.20
45785;DHT22;31489;51.404;5.474;2024-01-11T10:33:07;10.30;60.20
45785;DHT22;31489;51.404;5.474;2024-01-11T10:35:34;10.80;59.00
45785;DHT22;31489;51.404;5.474;2024-01-11T10:38:04;11.30;58.40
45785;DHT22;31489;51.404;5.474;2024-01-11T10:40:33;11.70;57.20
45785;DHT22;31489;51.404;5.474;2024-01-11T10:42:59;12.20;57.20
45785;DHT22;31489;51.404;5.474;2024-01-11T10:45:27;12.50;56.00
45785;DHT22;31489;51.404;5.474;2024-01-11T10:47:54;12.90;55.30
45785;DHT22;31489;51.404;5.474;2024-01-11T10:50:23;13.30;54.30
45785;DHT22;31489;51.404;5.474;2024-01-11T10:55:34;13.80;51.00
45785;DHT22;31489;51.404;5.474;2024-01-11T10:58:01;14.10;53.00
45785;DHT22;31489;51.404;5.474;2024-01-11T11:00:28;14.30;51.40
45785;DHT22;31489;51.404;5.474;2024-01-11T11:02:55;14.60;50.90
45785;DHT22;31489;51.404;5.474;2024-01-11T11:05:21;14.70;50.10
45785;DHT22;31489;51.404;5.474;2024-01-11T11:07:51;14.90;49.70
45785;DHT22;31489;51.404;5.474;2024-01-11T11:10:19;15.10;48.20
45785;DHT22;31489;51.404;5.474;2024-01-11T11:12:45;15.20;48.60
45785;DHT22;31489;51.404;5.474;2024-01-11T11:15:12;15.40;48.10
45785;DHT22;31489;51.404;5.474;2024-01-11T11:17:43;15.50;47.50
45785;DHT22;31489;51.404;5.474;2024-01-11T11:20:10;15.60;47.00
45785;DHT22;31489;51.404;5.474;2024-01-11T11:22:42;15.70;47.30
45785;DHT22;31489;51.404;5.474;2024-01-11T11:25:09;15.80;46.00
45785;DHT22;31489;51.404;5.474;2024-01-11T11:27:36;16.00;46.40
45785;DHT22;31489;51.404;5.474;2024-01-11T11:30:03;16.10;46.10
45785;DHT22;31489;51.404;5.474;2024-01-11T11:32:43;16.30;45.60
45785;DHT22;31489;51.404;5.474;2024-01-11T11:35:09;16.40;43.80
45785;DHT22;31489;51.404;5.474;2024-01-11T11:37:38;16.50;45.30
45785;DHT22;31489;51.404;5.474;2024-01-11T11:40:06;16.70;44.20
45785;DHT22;31489;51.404;5.474;2024-01-11T11:42:34;16.80;44.50
45785;DHT22;31489;51.404;5.474;2024-01-11T11:45:00;16.90;43.60
45785;DHT22;31489;51.404;5.474;2024-01-11T11:47:33;17.00;44.00
45785;DHT22;31489;51.404;5.474;2024-01-11T11:50:10;17.00;42.30
45785;DHT22;31489;51.404;5.474;2024-01-11T11:52:40;17.10;41.80
45785;DHT22;31489;51.404;5.474;2024-01-11T11:55:08;17.20;42.30
45785;DHT22;31489;51.404;5.474;2024-01-11T11:57:35;17.20;42.90
45785;DHT22;31489;51.404;5.474;2024-01-11T12:00:01;17.20;42.50
45785;DHT22;31489;51.404;5.474;2024-01-11T12:02:33;17.30;42.50
45785;DHT22;31489;51.404;5.474;2024-01-11T12:05:01;17.30;42.40
45785;DHT22;31489;51.404;5.474;2024-01-11T12:07:27;17.40;42.30
45785;DHT22;31489;51.404;5.474;2024-01-11T12:09:53;17.40;42.10
45785;DHT22;31489;51.404;5.474;2024-01-11T12:12:19;17.50;42.00
45785;DHT22;31489;51.404;5.474;2024-01-11T12:14:47;17.60;41.70
45785;DHT22;31489;51.404;5.474;2024-01-11T12:17:13;17.70;41.60
45785;DHT22;31489;51.404;5.474;2024-01-11T12:19:39;17.80;41.50
45785;DHT22;31489;51.404;5.474;2024-01-11T12:22:04;17.80;42.00
45785;DHT22;31489;51.404;5.474;2024-01-11T12:24:30;17.90;41.00
45785;DHT22;31489;51.404;5.474;2024-01-11T12:26:57;17.90;40.70
45785;DHT22;31489;51.404;5.474;2024-01-11T12:29:23;17.90;40.20
45785;DHT22;31489;51.404;5.474;2024-01-11T12:31:50;17.80;39.80
45785;DHT22;31489;51.404;5.474;2024-01-11T12:34:16;17.60;39.10
45785;DHT22;31489;51.404;5.474;2024-01-11T12:36:42;17.40;39.10
45785;DHT22;31489;51.404;5.474;2024-01-11T12:39:10;17.20;38.80
45785;DHT22;31489;51.404;5.474;2024-01-11T12:41:36;16.80;38.50
45785;DHT22;31489;51.404;5.474;2024-01-11T12:44:02;16.50;38.50
45785;DHT22;31489;51.404;5.474;2024-01-11T12:46:28;16.30;38.60
45785;DHT22;31489;51.404;5.474;2024-01-11T12:48:53;16.00;38.80
45785;DHT22;31489;51.404;5.474;2024-01-11T12:51:20;15.70;39.10
45785;DHT22;31489;51.404;5.474;2024-01-11T12:53:51;15.50;39.00
45785;DHT22;31489;51.404;5.474;2024-01-11T12:56:17;15.20;39.80
45785;DHT22;31489;51.404;5.474;2024-01-11T12:58:43;15.00;39.10
45785;DHT22;31489;51.404;5.474;2024-01-11T13:01:11;14.90;39.90
45785;DHT22;31489;51.404;5.474;2024-01-11T13:03:38;14.90;40.80
45785;DHT22;31489;51.404;5.474;2024-01-11T13:06:05;14.80;40.20
45785;DHT22;31489;51.404;5.474;2024-01-11T13:08:34;14.90;41.10
45785;DHT22;31489;51.404;5.474;2024-01-11T13:11:05;14.90;40.20
45785;DHT22;31489;51.404;5.474;2024-01-11T13:13:35;15.10;40.70
45785;DHT22;31489;51.404;5.474;2024-01-11T13:16:01;15.10;40.80
45785;DHT22;31489;51.404;5.474;2024-01-11T13:18:33;15.20;40.50
45785;DHT22;31489;51.404;5.474;2024-01-11T13:20:59;15.20;40.50
45785;DHT22;31489;51.404;5.474;2024-01-11T13:23:25;15.20;40.30
45785;DHT22;31489;51.404;5.474;2024-01-11T13:25:50;15.10;39.70
45785;DHT22;31489;51.404;5.474;2024-01-11T13:28:17;14.90;39.50
45785;DHT22;31489;51.404;5.474;2024-01-11T13:30:44;14.70;39.30
45785;DHT22;31489;51.404;5.474;2024-01-11T13:33:11;14.50;39.40
45785;DHT22;31489;51.404;5.474;2024-01-11T13:35:38;14.30;39.20
45785;DHT22;31489;51.404;5.474;2024-01-11T13:38:04;14.10;39.40
45785;DHT22;31489;51.404;5.474;2024-01-11T13:40:33;13.90;39.10
45785;DHT22;31489;51.404;5.474;2024-01-11T13:42:59;13.60;39.10
45785;DHT22;31489;51.404;5.474;2024-01-11T13:45:26;13.30;39.50
45785;DHT22;31489;51.404;5.474;2024-01-11T13:47:52;13.00;39.50
45785;DHT22;31489;51.404;5.474;2024-01-11T13:50:25;12.70;39.70
45785;DHT22;31489;51.404;5.474;2024-01-11T13:52:54;12.40;39.40
45785;DHT22;31489;51.404;5.474;2024-01-11T13:55:20;12.10;40.20
45785;DHT22;31489;51.404;5.474;2024-01-11T13:57:47;11.80;40.20
45785;DHT22;31489;51.404;5.474;2024-01-11T14:00:13;11.60;40.70
45785;DHT22;31489;51.404;5.474;2024-01-11T14:02:39;11.40;41.10
45785;DHT22;31489;51.404;5.474;2024-01-11T14:05:06;11.20;41.80
45785;DHT22;31489;51.404;5.474;2024-01-11T14:07:35;11.00;42.00
45785;DHT22;31489;51.404;5.474;2024-01-11T14:10:00;10.90;42.40
45785;DHT22;31489;51.404;5.474;2024-01-11T14:12:26;10.70;42.70
45785;DHT22;31489;51.404;5.474;2024-01-11T14:14:52;10.60;43.00
45785;DHT22;31489;51.404;5.474;2024-01-11T14:17:17;10.50;43.10
45785;DHT22;31489;51.404;5.474;2024-01-11T14:19:43;10.40;43.40
45785;DHT22;31489;51.404;5.474;2024-01-11T14:22:09;10.30;43.90
45785;DHT22;31489;51.404;5.474;2024-01-11T14:24:34;10.20;44.30
45785;DHT22;31489;51.404;5.474;2024-01-11T14:27:00;10.10;44.80
45785;DHT22;31489;51.404;5.474;2024-01-11T14:29:27;10.10;45.90
45785;DHT22;31489;51.404;5.474;2024-01-11T14:31:52;10.10;45.90
45785;DHT22;31489;51.404;5.474;2024-01-11T14:34:18;10.10;46.10
45785;DHT22;31489;51.404;5.474;2024-01-11T14:36:44;10.20;46.40
45785;DHT22;31489;51.404;5.474;2024-01-11T14:39:09;10.20;46.60
45785;DHT22;31489;51.404;5.474;2024-01-11T14:41:35;10.20;46.60
45785;DHT22;31489;51.404;5.474;2024-01-11T14:44:02;10.20;46.50
45785;DHT22;31489;51.404;5.474;2024-01-11T14:46:29;10.20;46.50
45785;DHT22;31489;51.404;5.474;2024-01-11T14:48:54;10.10;46.50
45785;DHT22;31489;51.404;5.474;2024-01-11T14:51:20;10.00;46.70
45785;DHT22;31489;51.404;5.474;2024-01-11T14:53:46;9.90;47.10
45785;DHT22;31489;51.404;5.474;2024-01-11T14:56:12;9.70;47.30
45785;DHT22;31489;51.404;5.474;2024-01-11T14:58:38;9.60;47.60
45785;DHT22;31489;51.404;5.474;2024-01-11T15:01:03;9.40;48.00
45785;DHT22;31489;51.404;5.474;2024-01-11T15:03:29;9.30;48.40
45785;DHT22;31489;51.404;5.474;2024-01-11T15:05:55;9.20;48.70
45785;DHT22;31489;51.404;5.474;2024-01-11T15:08:21;9.00;49.10
45785;DHT22;31489;51.404;5.474;2024-01-11T15:10:48;9.00;49.50
45785;DHT22;31489;51.404;5.474;2024-01-11T15:13:14;8.90;49.90
45785;DHT22;31489;51.404;5.474;2024-01-11T15:15:40;8.70;50.10
45785;DHT22;31489;51.404;5.474;2024-01-11T15:18:06;8.70;50.50
45785;DHT22;31489;51.404;5.474;2024-01-11T15:20:31;8.60;50.80
45785;DHT22;31489;51.404;5.474;2024-01-11T15:22:57;8.60;51.20
45785;DHT22;31489;51.404;5.474;2024-01-11T15:25:23;8.50;51.60
45785;DHT22;31489;51.404;5.474;2024-01-11T15:27:50;8.40;51.90
45785;DHT22;31489;51.404;5.474;2024-01-11T15:30:15;8.30;52.20
45785;DHT22;31489;51.404;5.474;2024-01-11T15:32:43;8.30;52.40
45785;DHT22;31489;51.404;5.474;2024-01-11T15:35:08;8.20;52.70
45785;DHT22;31489;51.404;5.474;2024-01-11T15:37:34;8.20;52.90
45785;DHT22;31489;51.404;5.474;2024-01-11T15:40:01;8.10;53.20